Time;durP1;ratioP1;P1;durP2;ratioP2;P2;SDS_P1;SDS_P2;PMS_P1;PMS_P2;Temp;Humidity;BMP_temperature;BMP_pressure;BME280_temperature;BME280_humidity;BME280_pressure;Samples;Min_cycle;Max_cycle;Signal;HPM_P1;HPM_P2
2021/06/03 00:01:08;;;;;;;8.10;4.68;;;;;;;14.13;62.96;103184.88;6262526;28;20188;-71
2021/06/03 00:04:12;;;;;;;10.23;5.22;;;;;;;14.04;63.52;103186.00;6262575;28;20229;-71
2021/06/03 00:07:19;;;;;;;6.30;5.15;;;;;;;13.97;64.14;103196.03;6267047;28;20184;-72
2021/06/03 00:10:25;;;;;;;14.95;5.22;;;;;;;13.87;64.27;103195.41;6265643;28;20215;-71
2021/06/03 00:13:31;;;;;;;14.13;5.05;;;;;;;13.97;64.07;103196.03;6265655;28;20216;-71
2021/06/03 00:16:35;;;;;;;14.90;4.90;;;;;;;13.93;64.44;103184.53;6266905;28;20192;-72
2021/06/03 00:19:39;;;;;;;8.75;5.00;;;;;;;13.76;65.15;103189.28;6266764;28;20185;-71
2021/06/03 00:22:44;;;;;;;8.20;4.90;;;;;;;13.71;66.01;103202.69;6265763;28;20195;-72
2021/06/03 00:25:49;;;;;;;16.17;5.80;;;;;;;13.68;66.66;103186.59;6265333;28;20385;-71
2021/06/03 00:28:53;;;;;;;12.77;5.45;;;;;;;13.79;66.03;103205.38;6265194;28;20216;-71
2021/06/03 00:31:57;;;;;;;11.10;5.32;;;;;;;13.72;65.62;103209.88;6265066;28;20439;-72
2021/06/03 00:35:01;;;;;;;9.38;5.00;;;;;;;13.67;65.77;103195.84;6266541;28;20189;-71
2021/06/03 00:38:06;;;;;;;5.88;4.88;;;;;;;13.74;65.52;103195.97;6265415;28;20185;-72
2021/06/03 00:41:11;;;;;;;10.32;5.00;;;;;;;13.71;65.63;103197.19;6265953;28;20196;-71
2021/06/03 00:44:15;;;;;;;12.77;4.95;;;;;;;13.73;65.41;103195.16;6266290;28;20207;-71
2021/06/03 00:47:23;;;;;;;9.10;4.78;;;;;;;13.65;65.81;103192.44;6264806;28;20478;-71
2021/06/03 00:50:31;;;;;;;10.77;5.15;;;;;;;13.62;66.17;103195.53;6265709;28;20213;-71
2021/06/03 00:53:39;;;;;;;10.10;5.13;;;;;;;13.75;65.67;103198.56;6247311;28;20207;-72
2021/06/03 00:56:43;;;;;;;5.55;5.15;;;;;;;13.64;66.46;103185.25;6266042;28;20185;-71
2021/06/03 00:59:48;;;;;;;10.77;5.90;;;;;;;13.60;67.27;103203.09;6264654;28;20185;-71
2021/06/03 01:02:52;;;;;;;18.25;7.10;;;;;;;13.53;67.51;103180.16;6292105;22;20255;-72
2021/06/03 01:05:59;;;;;;;15.73;8.27;;;;;;;13.53;68.10;103199.34;6287212;28;20550;-72
2021/06/03 01:09:08;;;;;;;12.82;8.02;;;;;;;13.50;68.35;103197.00;6271286;28;20405;-72
2021/06/03 01:12:19;;;;;;;14.63;8.10;;;;;;;13.28;68.86;103194.16;6288770;28;20216;-72
2021/06/03 01:15:24;;;;;;;13.98;7.75;;;;;;;13.52;68.13;103208.63;6288944;28;20191;-72
2021/06/03 01:18:30;;;;;;;10.75;6.25;;;;;;;13.58;66.96;103202.44;6288165;28;20404;-73
2021/06/03 01:21:39;;;;;;;8.50;6.43;;;;;;;13.44;68.08;103200.44;6270988;28;20258;-74
2021/06/03 01:24:48;;;;;;;9.98;6.82;;;;;;;13.51;67.68;103198.69;6271101;28;20254;-73
2021/06/03 01:27:54;;;;;;;11.68;7.50;;;;;;;13.25;69.52;103200.84;6270958;28;20200;-73
2021/06/03 01:31:04;;;;;;;10.32;7.20;;;;;;;13.21;70.00;103199.50;6288010;28;20492;-73
2021/06/03 01:34:08;;;;;;;9.82;6.60;;;;;;;13.24;69.81;103198.31;6287933;28;20389;-73
2021/06/03 01:37:12;;;;;;;9.50;6.55;;;;;;;13.18;70.87;103199.88;6288006;28;20251;-73
2021/06/03 01:40:19;;;;;;;10.43;6.57;;;;;;;13.27;70.24;103196.06;6289087;28;20184;-73
2021/06/03 01:43:25;;;;;;;16.02;6.47;;;;;;;13.15;69.85;103212.03;6286885;28;20211;-73
2021/06/03 01:46:30;;;;;;;15.05;6.28;;;;;;;13.07;69.95;103208.50;6287707;28;20428;-72
2021/06/03 01:49:35;;;;;;;13.55;5.97;;;;;;;12.96;70.20;103189.66;6287432;28;20357;-72
2021/06/03 01:52:40;;;;;;;8.95;6.15;;;;;;;12.94;70.40;103186.22;6270430;28;20227;-72
2021/06/03 01:55:46;;;;;;;12.77;9.13;;;;;;;12.89;71.45;103196.88;6270586;28;20200;-72
2021/06/03 01:58:50;;;;;;;23.08;10.43;;;;;;;12.90;71.92;103195.81;6270882;28;20203;-72
2021/06/03 02:01:54;;;;;;;20.23;9.82;;;;;;;12.85;72.00;103198.22;6287612;28;20243;-72
2021/06/03 02:04:58;;;;;;;17.42;9.13;;;;;;;13.00;71.67;103201.94;6288184;28;20223;-72
2021/06/03 02:08:03;;;;;;;16.90;10.00;;;;;;;13.18;70.48;103202.59;6269751;28;20200;-73
2021/06/03 02:11:16;;;;;;;26.42;10.10;;;;;;;12.75;71.29;103153.75;6269998;28;20227;-73
2021/06/03 02:14:23;;;;;;;15.38;10.35;;;;;;;13.04;71.32;103204.19;6286958;28;20420;-72
2021/06/03 02:17:31;;;;;;;21.48;10.50;;;;;;;13.00;71.78;103207.44;6269363;28;20526;-72
2021/06/03 02:20:40;;;;;;;19.92;10.40;;;;;;;12.98;71.64;103209.50;6288329;28;20184;-72
2021/06/03 02:23:50;;;;;;;19.90;9.38;;;;;;;13.03;72.17;103201.59;6269660;28;20463;-72
2021/06/03 02:26:57;;;;;;;24.88;10.52;;;;;;;12.50;71.86;103107.25;6285263;28;20293;-72
2021/06/03 02:30:01;;;;;;;21.90;10.02;;;;;;;12.84;72.25;103174.63;6268867;28;20266;-72
2021/06/03 02:33:12;;;;;;;19.17;9.60;;;;;;;12.89;72.72;103210.56;6286493;28;20408;-72
2021/06/03 02:36:16;;;;;;;19.58;10.73;;;;;;;12.53;73.15;103167.13;6286599;28;20259;-72
2021/06/03 02:39:20;;;;;;;21.40;11.52;;;;;;;12.78;73.26;103209.03;6269343;28;20429;-72
2021/06/03 02:42:26;;;;;;;18.15;11.60;;;;;;;12.82;73.34;103215.88;6286241;28;20210;-72
2021/06/03 02:45:34;;;;;;;20.73;12.13;;;;;;;12.95;72.75;103220.81;6285523;28;20490;-72
2021/06/03 02:48:39;;;;;;;23.52;11.65;;;;;;;13.12;72.11;103228.84;6287724;28;20191;-72
2021/06/03 02:51:43;;;;;;;21.77;11.40;;;;;;;12.99;72.11;103200.25;6287119;28;20287;-73
2021/06/03 02:54:47;;;;;;;22.08;11.68;;;;;;;12.84;73.55;103234.91;6284755;28;20207;-73
2021/06/03 02:57:54;;;;;;;16.02;11.68;;;;;;;13.12;72.89;103222.53;6287225;28;20223;-73
2021/06/03 03:01:01;;;;;;;20.88;11.27;;;;;;;13.02;73.57;103221.81;6285179;28;20231;-73
2021/06/03 03:04:05;;;;;;;16.73;10.63;;;;;;;12.95;73.80;103227.16;6268330;28;20520;-73
2021/06/03 03:07:11;;;;;;;24.83;10.13;;;;;;;12.94;74.43;103219.13;6286816;28;20346;-73
2021/06/03 03:10:19;;;;;;;14.02;8.70;;;;;;;12.98;74.43;103215.84;6286253;28;20364;-72
2021/06/03 03:13:25;;;;;;;14.18;9.18;;;;;;;13.04;74.31;103214.28;6268779;28;20224;-72
2021/06/03 03:16:29;;;;;;;11.48;8.95;;;;;;;13.25;73.18;103222.78;6286804;28;20216;-72
2021/06/03 03:19:36;;;;;;;19.13;9.00;;;;;;;13.15;73.88;103216.66;6285010;28;20223;-73
2021/06/03 03:22:42;;;;;;;16.35;8.90;;;;;;;13.08;74.59;103226.63;6286889;28;20263;-72
2021/06/03 03:25:46;;;;;;;10.77;7.90;;;;;;;13.20;74.58;103216.16;6268344;28;20231;-72
2021/06/03 03:28:52;;;;;;;15.90;7.75;;;;;;;13.35;74.15;103212.50;6285595;28;20380;-72
2021/06/03 03:31:55;;;;;;;12.95;6.93;;;;;;;13.29;74.46;103218.69;6286381;28;20215;-73
2021/06/03 03:35:01;;;;;;;12.30;6.50;;;;;;;13.31;74.33;103216.59;6268068;28;20232;-73
2021/06/03 03:38:07;;;;;;;8.90;5.88;;;;;;;13.46;73.94;103225.78;6285349;28;20521;-72
2021/06/03 03:41:12;;;;;;;13.63;6.03;;;;;;;13.37;73.99;103221.41;6273724;28;20248;-72
2021/06/03 03:44:18;;;;;;;12.48;6.03;;;;;;;13.41;74.43;103222.72;6290079;28;20204;-72
2021/06/03 03:47:22;;;;;;;19.80;6.47;;;;;;;13.44;74.03;103222.38;6273240;28;20222;-72
2021/06/03 03:50:26;;;;;;;15.98;6.10;;;;;;;13.53;73.44;103215.81;6289584;28;20200;-72
2021/06/03 03:53:30;;;;;;;19.92;6.28;;;;;;;13.49;73.54;103209.00;6273403;28;20227;-73
2021/06/03 03:56:34;;;;;;;9.18;5.68;;;;;;;13.64;73.06;103218.16;6290210;28;20219;-72
2021/06/03 03:59:41;;;;;;;13.00;5.60;;;;;;;13.56;74.07;103209.97;6273138;28;20246;-73
2021/06/03 04:02:45;;;;;;;10.20;5.75;;;;;;;13.66;73.46;103213.34;6290810;28;20527;-73
2021/06/03 04:05:59;;;;;;;11.98;5.75;;;;;;;13.66;73.59;103210.59;6272912;28;20361;-73
2021/06/03 04:09:05;;;;;;;15.45;5.88;;;;;;;13.72;73.10;103220.88;6273186;28;20237;-71
2021/06/03 04:12:10;;;;;;;14.77;5.78;;;;;;;13.77;72.92;103217.56;6272138;28;20224;-72
2021/06/03 04:15:19;;;;;;;14.75;5.63;;;;;;;13.87;73.31;103214.63;6290656;28;20191;-73
2021/06/03 04:18:24;;;;;;;13.90;6.25;;;;;;;13.91;72.88;103215.94;6272321;28;20514;-72
2021/06/03 04:21:29;;;;;;;16.58;6.05;;;;;;;13.87;73.23;103218.19;6272274;28;20239;-73
2021/06/03 04:24:33;;;;;;;15.93;6.20;;;;;;;13.99;73.11;103218.66;6289870;28;20195;-71
2021/06/03 04:27:36;;;;;;;11.57;6.15;;;;;;;13.96;72.78;103216.25;6289243;28;20529;-72
2021/06/03 04:30:42;;;;;;;5.20;4.40;;;;;;;13.77;67.48;103223.91;6289576;28;20196;-73
2021/06/03 04:33:46;;;;;;;4.53;3.88;;;;;;;13.87;64.60;103217.38;6289411;28;20261;-73
2021/06/03 04:36:49;;;;;;;4.28;3.67;;;;;;;13.94;63.35;103218.34;6290167;28;20238;-73
2021/06/03 04:39:53;;;;;;;4.65;3.70;;;;;;;13.73;63.11;103186.06;6289187;28;20467;-73
2021/06/03 04:42:58;;;;;;;3.90;3.58;;;;;;;14.07;62.54;103213.09;6271258;28;20235;-72
2021/06/03 04:46:03;;;;;;;4.30;3.90;;;;;;;14.18;62.43;103215.41;6290334;28;20184;-73
2021/06/03 04:49:08;;;;;;;3.60;3.40;;;;;;;14.23;62.07;103201.97;6289948;28;20184;-72
2021/06/03 04:52:26;;;;;;;3.28;2.85;;;;;;;14.46;61.80;103224.81;6287978;28;20522;-72
2021/06/03 04:55:30;;;;;;;6.22;3.58;;;;;;;14.60;61.10;103220.41;6289921;28;20220;-72
2021/06/03 04:58:36;;;;;;;3.60;3.38;;;;;;;14.69;61.30;103214.63;6289638;28;20253;-73
2021/06/03 05:01:41;;;;;;;3.45;3.22;;;;;;;14.66;62.28;103211.41;6289547;28;20259;-72
2021/06/03 05:04:45;;;;;;;3.33;3.22;;;;;;;14.80;61.06;103219.69;6288663;28;20416;-73
2021/06/03 05:07:50;;;;;;;3.33;3.03;;;;;;;14.82;61.60;103214.84;6289492;28;20231;-73
2021/06/03 05:10:54;;;;;;;4.22;3.45;;;;;;;14.87;62.10;103217.88;6289353;28;20222;-72
2021/06/03 05:13:58;;;;;;;3.75;3.50;;;;;;;14.89;62.08;103226.78;6288154;28;20434;-72
2021/06/03 05:17:03;;;;;;;6.93;3.60;;;;;;;15.01;62.36;103224.44;6288223;28;20184;-72
2021/06/03 05:20:10;;;;;;;6.25;3.42;;;;;;;15.07;62.09;103211.84;6288397;28;20379;-72
2021/06/03 05:23:15;;;;;;;3.70;3.45;;;;;;;15.22;62.27;103218.19;6288318;28;20475;-73
2021/06/03 05:26:20;;;;;;;4.22;2.83;;;;;;;15.50;59.71;103225.59;6289432;28;20188;-72
2021/06/03 05:29:23;;;;;;;5.97;3.00;;;;;;;15.79;58.93;103227.44;6288484;28;20192;-72
2021/06/03 05:32:28;;;;;;;4.78;2.80;;;;;;;16.09;57.49;103220.78;6287727;28;20184;-72
2021/06/03 05:35:32;;;;;;;3.15;3.00;;;;;;;16.23;56.41;103211.56;6288194;28;20247;-73
2021/06/03 05:38:36;;;;;;;4.45;2.70;;;;;;;16.37;56.14;103223.59;6287602;28;20245;-73
2021/06/03 05:41:40;;;;;;;3.03;2.83;;;;;;;16.65;56.22;103226.41;6287474;28;20245;-72
2021/06/03 05:44:44;;;;;;;2.92;2.80;;;;;;;16.76;55.37;103223.09;6289007;28;20195;-72
2021/06/03 05:47:49;;;;;;;3.47;3.28;;;;;;;16.91;53.98;103221.09;6287481;28;20396;-73
2021/06/03 05:50:54;;;;;;;3.38;3.08;;;;;;;17.02;54.53;103217.78;6287468;28;20441;-72
2021/06/03 05:53:57;;;;;;;3.22;2.95;;;;;;;17.12;53.47;103221.03;6288559;28;20257;-72
2021/06/03 05:57:01;;;;;;;6.57;3.00;;;;;;;17.15;53.89;103223.38;6288212;28;20184;-72
2021/06/03 06:00:08;;;;;;;6.63;3.08;;;;;;;17.33;54.62;103220.91;6287228;28;20184;-73
2021/06/03 06:03:28;;;;;;;3.42;3.13;;;;;;;17.37;54.67;103213.94;6288288;28;20510;-73
2021/06/03 06:06:32;;;;;;;2.95;2.90;;;;;;;17.43;52.69;103198.47;6287395;28;20215;-72
2021/06/03 06:09:35;;;;;;;3.67;3.33;;;;;;;17.63;54.50;103215.13;6288527;28;20206;-72
2021/06/03 06:12:39;;;;;;;12.40;3.25;;;;;;;17.85;53.57;103202.88;6289184;28;20184;-72
2021/06/03 06:15:43;;;;;;;3.50;2.88;;;;;;;17.96;53.99;103213.31;6288020;28;20192;-72
2021/06/03 06:18:48;;;;;;;2.92;2.83;;;;;;;17.94;54.40;103208.03;6288020;28;20184;-73
2021/06/03 06:21:52;;;;;;;5.72;2.80;;;;;;;18.05;52.51;103203.81;6269719;28;20415;-72
2021/06/03 06:24:56;;;;;;;3.88;3.15;;;;;;;18.03;52.36;103189.31;6287834;28;20234;-73
2021/06/03 06:28:00;;;;;;;3.00;2.60;;;;;;;18.19;50.19;103204.66;6269231;28;20258;-72
2021/06/03 06:31:05;;;;;;;3.10;2.75;;;;;;;18.29;51.44;103208.69;6287343;28;20184;-73
2021/06/03 06:34:10;;;;;;;3.42;2.28;;;;;;;18.40;50.98;103201.69;6286232;28;20263;-72
2021/06/03 06:37:14;;;;;;;2.53;2.38;;;;;;;18.43;49.17;103207.66;6287011;28;20222;-73
2021/06/03 06:40:18;;;;;;;2.70;2.60;;;;;;;18.48;48.28;103205.16;6287058;28;20203;-74
2021/06/03 06:43:22;;;;;;;4.30;2.35;;;;;;;18.44;49.54;103214.88;6287234;28;20188;-74
2021/06/03 06:46:26;;;;;;;3.17;2.70;;;;;;;18.49;48.75;103203.25;6286914;28;20188;-73
2021/06/03 06:49:31;;;;;;;23.92;3.25;;;;;;;18.56;48.76;103196.66;6286686;28;20263;-73
2021/06/03 06:52:35;;;;;;;4.85;2.80;;;;;;;18.47;48.19;103175.78;6286884;28;20218;-72
2021/06/03 06:55:40;;;;;;;2.97;2.65;;;;;;;18.69;48.24;103196.59;6285290;28;20471;-72
2021/06/03 06:58:44;;;;;;;6.65;2.75;;;;;;;18.72;48.09;103210.00;6286772;28;20188;-73
2021/06/03 07:01:48;;;;;;;5.55;2.90;;;;;;;18.72;46.78;103203.63;6286454;28;20322;-73
2021/06/03 07:04:53;;;;;;;4.18;2.60;;;;;;;18.83;47.70;103213.19;6287353;28;20234;-75
2021/06/03 07:07:57;;;;;;;2.65;2.40;;;;;;;18.94;46.67;103209.78;6287372;28;20184;-73
2021/06/03 07:11:00;;;;;;;4.60;2.30;;;;;;;18.99;44.38;103208.06;6287190;28;20216;-73
2021/06/03 07:14:05;;;;;;;2.30;2.28;;;;;;;19.03;45.11;103208.50;6286972;28;20235;-73
2021/06/03 07:17:08;;;;;;;2.45;2.30;;;;;;;19.12;45.07;103212.72;6286755;28;20191;-72
2021/06/03 07:20:19;;;;;;;2.28;2.17;;;;;;;19.09;42.89;103202.09;6285530;28;20268;-73
2021/06/03 07:23:23;;;;;;;4.85;2.50;;;;;;;19.22;43.59;103202.91;6286871;28;20188;-73
2021/06/03 07:26:26;;;;;;;6.50;2.22;;;;;;;19.35;44.09;103207.53;6287034;28;20190;-73
2021/06/03 07:29:30;;;;;;;4.38;2.60;;;;;;;19.32;43.53;103210.75;6285595;28;20271;-73
2021/06/03 07:32:34;;;;;;;2.35;2.10;;;;;;;19.35;43.71;103213.06;6285534;28;20497;-73
2021/06/03 07:35:39;;;;;;;2.60;2.40;;;;;;;19.43;43.73;103210.09;6286392;28;20283;-72
2021/06/03 07:38:43;;;;;;;3.17;2.20;;;;;;;19.62;43.87;103209.16;6285246;28;20248;-72
2021/06/03 07:41:46;;;;;;;2.42;2.10;;;;;;;19.74;44.25;103207.41;6285275;28;20246;-72
2021/06/03 07:44:50;;;;;;;3.45;2.72;;;;;;;19.72;44.66;103212.31;6284300;28;20451;-72
2021/06/03 07:47:56;;;;;;;6.90;3.00;;;;;;;19.70;42.09;103206.13;6284953;28;20460;-73
2021/06/03 07:51:04;;;;;;;2.53;2.40;;;;;;;19.70;43.40;103189.53;6285452;28;20252;-72
2021/06/03 07:54:08;;;;;;;2.78;2.38;;;;;;;19.92;44.17;103198.34;6285177;28;20215;-73
2021/06/03 07:57:13;;;;;;;3.15;2.58;;;;;;;20.03;43.75;103194.03;6284980;28;20412;-74
2021/06/03 08:00:20;;;;;;;9.68;2.58;;;;;;;20.12;43.63;103198.22;6286227;28;20191;-72
2021/06/03 08:03:24;;;;;;;2.47;2.28;;;;;;;20.10;42.91;103211.47;6285856;28;20228;-73
2021/06/03 08:06:29;;;;;;;3.03;2.72;;;;;;;20.18;42.26;103200.97;6285074;28;20191;-73
2021/06/03 08:09:33;;;;;;;5.25;2.90;;;;;;;20.19;42.39;103193.47;6286504;28;20184;-73
2021/06/03 08:12:37;;;;;;;2.90;2.80;;;;;;;20.29;42.76;103199.41;6285444;28;20216;-73
2021/06/03 08:15:42;;;;;;;2.58;2.40;;;;;;;20.32;43.04;103193.41;6285841;28;20220;-72
2021/06/03 08:18:47;;;;;;;2.60;2.50;;;;;;;20.35;41.93;103192.97;6286117;28;20191;-73
2021/06/03 08:21:52;;;;;;;4.85;2.47;;;;;;;20.43;42.34;103195.47;6285384;28;20190;-73
2021/06/03 08:24:55;;;;;;;2.72;2.63;;;;;;;20.40;41.30;103193.13;6284939;28;20204;-73
2021/06/03 08:27:59;;;;;;;4.13;2.63;;;;;;;20.23;40.75;103189.19;6288935;28;20263;-72
2021/06/03 08:31:03;;;;;;;2.70;2.60;;;;;;;20.29;41.85;103193.84;6290801;28;20199;-73
2021/06/03 08:34:11;;;;;;;2.47;2.30;;;;;;;20.20;41.25;103170.22;6289209;28;20212;-72
2021/06/03 08:37:16;;;;;;;5.13;2.45;;;;;;;20.30;42.97;103184.47;6289713;28;20188;-72
2021/06/03 08:40:21;;;;;;;2.30;2.20;;;;;;;20.24;42.03;103185.34;6289328;28;20188;-72
2021/06/03 08:43:27;;;;;;;4.03;2.40;;;;;;;20.37;41.20;103193.56;6290315;28;20252;-73
2021/06/03 08:46:30;;;;;;;3.15;2.60;;;;;;;20.26;41.85;103194.31;6290301;28;20188;-73
2021/06/03 08:49:35;;;;;;;6.20;2.40;;;;;;;20.38;42.25;103181.44;6289068;28;20184;-73
2021/06/03 08:52:40;;;;;;;3.17;2.13;;;;;;;20.25;41.03;103187.06;6289753;28;20254;-73
2021/06/03 08:59:07;;;;;;;4.75;2.38;;;;;;;20.34;40.56;103185.72;6289851;28;20188;-74
2021/06/03 09:02:11;;;;;;;4.78;2.60;;;;;;;20.43;40.69;103184.38;6289986;28;20228;-73
2021/06/03 09:05:15;;;;;;;2.20;2.20;;;;;;;20.60;41.59;103191.03;6288439;28;20415;-72
2021/06/03 09:08:23;;;;;;;5.07;2.95;;;;;;;20.64;40.58;103180.34;6288664;28;20490;-72
2021/06/03 09:11:27;;;;;;;2.50;2.40;;;;;;;20.55;39.93;103182.53;6289141;28;20193;-72
2021/06/03 09:14:31;;;;;;;2.17;2.17;;;;;;;20.43;39.54;103189.91;6288233;28;20381;-73
2021/06/03 09:17:45;;;;;;;2.05;1.95;;;;;;;20.51;39.20;103186.88;6289204;28;20188;-72
2021/06/03 09:20:48;;;;;;;4.90;2.30;;;;;;;20.34;38.24;103169.06;6289156;28;20191;-72
2021/06/03 09:23:58;;;;;;;5.65;2.42;;;;;;;20.45;39.00;103173.88;6288263;28;20238;-72
2021/06/03 09:27:05;;;;;;;2.35;2.25;;;;;;;20.53;39.51;103179.16;6289307;28;20191;-72
2021/06/03 09:30:12;;;;;;;2.15;2.05;;;;;;;20.41;38.20;103167.13;6289015;28;20223;-73
2021/06/03 09:33:16;;;;;;;5.22;2.88;;;;;;;20.45;39.38;103174.75;6288794;28;20230;-72
2021/06/03 09:36:28;;;;;;;2.63;2.53;;;;;;;20.51;38.17;103159.13;6288444;28;20208;-75
2021/06/03 09:39:35;;;;;;;2.42;2.33;;;;;;;20.54;38.89;103159.50;6287455;28;20382;-72
2021/06/03 09:42:39;;;;;;;2.55;2.40;;;;;;;20.59;39.05;103161.63;6287285;28;20234;-72
2021/06/03 09:45:53;;;;;;;3.15;2.20;;;;;;;20.57;38.78;103158.19;6287015;28;20188;-72
2021/06/03 09:48:57;;;;;;;2.17;2.08;;;;;;;20.65;39.19;103163.47;6288554;28;20185;-73
2021/06/03 09:52:04;;;;;;;2.75;2.60;;;;;;;20.68;38.49;103153.81;6288635;28;20263;-73
2021/06/03 09:55:11;;;;;;;2.35;2.25;;;;;;;20.71;40.35;103154.22;6287442;28;20292;-73
2021/06/03 09:58:37;;;;;;;3.13;2.90;;;;;;;20.67;39.74;103157.69;6287279;28;20283;-73
2021/06/03 10:01:50;;;;;;;2.50;2.30;;;;;;;20.71;39.28;103153.38;6287003;28;20319;-73
2021/06/03 10:04:54;;;;;;;2.83;2.67;;;;;;;20.79;40.56;103151.16;6287992;28;20210;-72
2021/06/03 10:08:01;;;;;;;2.30;2.15;;;;;;;20.86;39.68;103140.84;6287607;28;20184;-72
2021/06/03 10:11:06;;;;;;;2.45;2.45;;;;;;;20.84;39.42;103147.69;6287556;28;20188;-74
2021/06/03 10:14:12;;;;;;;2.30;2.20;;;;;;;20.77;40.26;103141.38;6286395;28;20427;-73
2021/06/03 10:17:19;;;;;;;3.83;2.38;;;;;;;20.74;40.51;103142.69;6286499;28;20374;-73
2021/06/03 10:20:25;;;;;;;8.57;2.55;;;;;;;20.80;40.19;103138.97;6286423;28;20419;-73
2021/06/03 10:23:30;;;;;;;3.28;2.47;;;;;;;20.78;40.27;103138.34;6286175;28;20216;-73
2021/06/03 10:26:56;;;;;;;4.57;2.70;;;;;;;20.88;40.72;103133.13;6286203;28;20552;-73
2021/06/03 10:30:01;;;;;;;2.88;2.67;;;;;;;20.94;41.42;103137.75;6287635;28;20248;-73
2021/06/03 10:33:06;;;;;;;3.08;2.88;;;;;;;21.00;40.85;103125.75;6286100;28;20554;-73
2021/06/03 10:36:13;;;;;;;3.38;2.70;;;;;;;20.91;40.88;103121.56;6287244;28;20239;-73
2021/06/03 10:39:17;;;;;;;6.95;2.90;;;;;;;21.15;40.97;103136.47;6268434;28;20207;-73
2021/06/03 10:42:23;;;;;;;7.88;3.00;;;;;;;21.27;40.54;103142.09;6286227;28;20375;-73
2021/06/03 10:45:28;;;;;;;10.57;3.10;;;;;;;21.27;39.96;103142.09;6286916;28;20188;-72
2021/06/03 10:48:32;;;;;;;5.85;3.20;;;;;;;21.31;40.60;103132.22;6285249;28;20184;-73
2021/06/03 10:51:36;;;;;;;3.65;2.70;;;;;;;21.23;41.74;103135.31;6286650;28;20184;-73
2021/06/03 10:54:51;;;;;;;2.97;2.78;;;;;;;21.16;40.91;103108.47;6286700;28;20215;-72
2021/06/03 10:57:58;;;;;;;3.20;2.90;;;;;;;21.27;40.54;103125.44;6285522;28;20255;-73
2021/06/03 11:01:05;;;;;;;2.72;2.63;;;;;;;21.27;39.91;103131.84;6285385;28;20337;-72
2021/06/03 11:04:27;;;;;;;2.55;2.45;;;;;;;21.29;40.33;103131.63;6286446;28;20195;-73
2021/06/03 11:07:35;;;;;;;3.20;2.67;;;;;;;21.40;39.46;103125.25;6285806;28;20358;-73
2021/06/03 11:10:38;;;;;;;2.78;2.67;;;;;;;21.53;38.33;103119.53;6287358;28;20391;-73
2021/06/03 11:14:08;;;;;;;20.25;3.78;;;;;;;21.67;36.54;103121.03;6285594;28;20383;-74
2021/06/03 11:17:56;;;;;;;2.42;2.42;;;;;;;21.83;36.54;103120.34;6286966;28;20238;-73
2021/06/03 11:20:59;;;;;;;3.08;2.50;;;;;;;21.87;37.46;103126.31;6286881;28;20184;-73
2021/06/03 11:24:05;;;;;;;2.50;2.35;;;;;;;22.01;36.55;103125.88;6286625;28;20215;-73
2021/06/03 11:27:09;;;;;;;2.28;2.17;;;;;;;21.94;36.66;103122.34;6286284;28;20226;-72
2021/06/03 11:30:15;;;;;;;3.08;2.60;;;;;;;22.09;36.91;103117.19;6286629;28;20263;-72
2021/06/03 11:34:06;;;;;;;2.92;2.72;;;;;;;22.17;35.86;103122.41;6286493;28;20198;-73
2021/06/03 11:37:13;;;;;;;3.42;2.50;;;;;;;22.15;35.93;103121.81;6286444;28;20211;-72
2021/06/03 11:40:24;;;;;;;3.67;2.50;;;;;;;22.24;36.22;103128.69;6285190;28;20208;-73
2021/06/03 11:43:28;;;;;;;4.93;2.35;;;;;;;22.32;35.77;103120.00;6285276;28;20562;-72
2021/06/03 11:47:04;;;;;;;2.83;2.60;;;;;;;22.34;35.25;103123.38;6286630;28;20242;-73
2021/06/03 11:50:44;;;;;;;5.90;2.30;;;;;;;22.26;35.42;103118.16;6286491;28;20184;-72
2021/06/03 11:53:52;;;;;;;10.80;2.40;;;;;;;22.26;35.44;103126.50;6285267;28;20184;-73
2021/06/03 11:57:14;;;;;;;2.38;2.20;;;;;;;22.21;35.85;103115.25;6285172;28;20346;-72
2021/06/03 12:00:17;;;;;;;5.18;2.40;;;;;;;22.36;35.22;103110.09;6286613;28;20200;-73
2021/06/03 12:03:33;;;;;;;10.43;2.70;;;;;;;22.18;36.32;103124.09;6289646;28;20330;-72
2021/06/03 12:06:41;;;;;;;2.60;2.60;;;;;;;22.22;36.75;103111.41;6272444;28;20411;-73
2021/06/03 12:09:51;;;;;;;6.25;2.65;;;;;;;22.31;35.80;103112.75;6290393;28;20191;-72
2021/06/03 12:12:54;;;;;;;3.80;2.78;;;;;;;22.39;36.70;103097.66;6289759;28;20184;-73
2021/06/03 12:15:59;;;;;;;11.10;2.55;;;;;;;22.49;34.11;103114.59;6289703;28;20533;-73
2021/06/03 12:19:08;;;;;;;2.17;2.17;;;;;;;22.42;34.94;103088.78;6289584;28;20493;-73
2021/06/03 12:22:13;;;;;;;2.45;2.38;;;;;;;22.65;35.16;103107.47;6289758;28;20222;-72
2021/06/03 12:25:19;;;;;;;5.15;2.47;;;;;;;22.65;35.84;103108.28;6290802;28;20223;-73
2021/06/03 12:28:22;;;;;;;5.50;2.50;;;;;;;22.66;35.63;103093.31;6289697;28;20192;-73
2021/06/03 12:31:28;;;;;;;2.60;2.13;;;;;;;22.58;34.09;103101.13;6289022;28;20184;-73
2021/06/03 12:34:32;;;;;;;4.93;2.70;;;;;;;22.55;34.24;103104.41;6290606;28;20189;-73
2021/06/03 12:37:48;;;;;;;2.72;2.55;;;;;;;22.77;34.64;103105.53;6287051;28;20240;-73
2021/06/03 12:40:54;;;;;;;2.40;2.30;;;;;;;22.77;35.08;103094.38;6290329;28;20216;-72
2021/06/03 12:44:00;;;;;;;5.57;2.70;;;;;;;22.73;34.95;103098.72;6289633;28;20185;-73
2021/06/03 12:47:07;;;;;;;4.25;2.40;;;;;;;22.78;34.82;103073.78;6290218;28;20271;-73
2021/06/03 12:50:14;;;;;;;2.47;2.38;;;;;;;22.76;33.98;103092.69;6288930;28;20327;-73
2021/06/03 12:53:19;;;;;;;12.27;2.60;;;;;;;22.57;34.40;103054.94;6288776;28;20510;-73
2021/06/03 12:56:24;;;;;;;6.43;2.60;;;;;;;22.89;34.67;103076.56;6289915;28;20212;-73
2021/06/03 12:59:31;;;;;;;3.10;2.70;;;;;;;23.00;35.34;103077.63;6289962;28;20189;-72
2021/06/03 13:02:36;;;;;;;2.90;2.40;;;;;;;22.88;36.06;103074.03;6288444;28;20228;-73
2021/06/03 13:05:40;;;;;;;2.67;2.47;;;;;;;22.81;35.60;103057.47;6289333;28;20220;-73
2021/06/03 13:08:45;;;;;;;3.17;3.00;;;;;;;23.11;35.55;103073.97;6288485;28;20245;-73
2021/06/03 13:11:50;;;;;;;2.92;2.67;;;;;;;22.93;35.42;103072.19;6288777;28;20285;-72
2021/06/03 13:14:56;;;;;;;3.85;2.33;;;;;;;23.15;35.77;103075.16;6289612;28;20223;-73
2021/06/03 13:18:04;;;;;;;2.83;2.55;;;;;;;23.15;35.45;103083.53;6288119;28;20208;-73
2021/06/03 13:21:13;;;;;;;2.80;2.70;;;;;;;23.15;35.09;103075.16;6288825;28;20192;-73
2021/06/03 13:24:23;;;;;;;6.72;2.70;;;;;;;23.25;35.61;103075.38;6289419;28;20188;-73
2021/06/03 13:27:30;;;;;;;10.32;2.90;;;;;;;23.12;35.06;103072.03;6287937;28;20235;-73
2021/06/03 13:30:39;;;;;;;10.82;2.80;;;;;;;23.17;34.72;103070.19;6287948;28;20498;-73
2021/06/03 13:33:43;;;;;;;2.65;2.60;;;;;;;23.22;34.99;103070.28;6288968;28;20231;-73
2021/06/03 13:36:57;;;;;;;3.15;2.63;;;;;;;23.27;34.33;103062.03;6287716;28;20301;-73
2021/06/03 13:40:04;;;;;;;9.75;2.90;;;;;;;23.71;34.20;103053.97;6289568;28;20190;-73
2021/06/03 13:43:13;;;;;;;9.23;3.10;;;;;;;23.82;34.93;103047.47;6290051;28;20192;-73
2021/06/03 13:46:18;;;;;;;4.20;2.53;;;;;;;25.30;32.15;103055.78;6288538;28;20193;-73
2021/06/03 13:49:26;;;;;;;9.07;3.20;;;;;;;26.71;29.77;103041.06;6287314;28;20518;-72
2021/06/03 13:52:43;;;;;;;4.68;2.53;;;;;;;28.09;27.69;103035.56;6288512;28;20255;-71
2021/06/03 13:55:48;;;;;;;2.63;2.60;;;;;;;27.24;27.88;103023.09;6288059;28;20191;-72
2021/06/03 13:59:12;;;;;;;5.28;3.13;;;;;;;26.03;29.05;103027.19;6288506;28;20184;-72
2021/06/03 14:02:17;;;;;;;6.38;2.90;;;;;;;27.07;28.09;103027.22;6287457;28;20526;-72
2021/06/03 14:05:20;;;;;;;4.57;2.58;;;;;;;27.90;27.26;103026.00;6287867;28;20191;-73
2021/06/03 14:08:30;;;;;;;3.75;2.92;;;;;;;27.06;27.98;103034.81;6288073;28;20227;-73
2021/06/03 14:11:46;;;;;;;3.75;3.30;;;;;;;26.52;28.91;103041.81;6287512;28;20251;-72
2021/06/03 14:15:02;;;;;;;2.83;2.60;;;;;;;26.07;29.68;103034.75;6287620;28;20184;-72
2021/06/03 14:18:07;;;;;;;2.85;2.63;;;;;;;25.30;30.30;103039.88;6287341;28;20219;-72
2021/06/03 14:21:11;;;;;;;2.97;2.67;;;;;;;24.82;31.06;102996.03;6287503;28;20185;-71
2021/06/03 14:24:30;;;;;;;8.80;3.10;;;;;;;24.72;31.55;103026.59;6286496;28;20188;-73
2021/06/03 14:27:40;;;;;;;6.65;3.22;;;;;;;24.35;32.20;103021.84;6286229;28;20372;-72